Αρχική σελίδα
METAR-TAF:

METAR-TAF

Αεροδρόμια :

Valledupar, Κολομβία

γεωγραφικό πλάτος: 10-26N, γεωγραφικό μήκος: 073-15W, υψόμετρο: 138 μ

Παρών καιρός

Η αναφορά έγινε 28 λεπτά πριν, στις 03:00 UTC
Άνεμος 12 kt από BA
Θερμοκρασία 31°C
Υγρασία 59%
Πίεση 1011 hPa
Ορατότητα 10 χλμ και άνω
Λίγα νέφη σε ύψος 1500 πόδια

METAR: SKVP 230300Z 05012KT 9999 FEW015 31/22 Q1011

Χρόνος: 22:28 (03:28 UTC)


TAF: λείπει

Μετεωρολογικές αναφορές και προγνώσεις για περισσότερα από 4000 αεροδρόμια (δελτία METAR και TAF).

Οι διαθέσιμοι σταθμοί απεικονίζονται στο χάρτη με κίτρινες και κόκκινες κουκκίδες.

Μετακινήστε το ποντίκι πάνω από τις κουκκίδες για να δείτε το όνομα του σταθμού.

Στη συνέχεια, κάντε κλικ για να δείτε τις μετεωρολογικές αναφορές και τις προγνώσεις καιρού.

Για να αλλάξετε το χάρτη: κάντε κλικ στα πράσινα κουμπιά με τον μαύρο σταυρό για να ζουμάρετε, στο πράσινο κουμπί με την παύλα για να αφαιρέσετε το ζουμ ή στα πράσινα βέλη για να αντιπαραβάλλετε χάρτες.


METAR-TAF: